createdAt,value
2019-04-11T00:02:30.986Z,2.44
2019-04-11T00:05:37.066Z,2.56
2019-04-11T00:08:42.294Z,2.46
2019-04-11T00:11:48.287Z,2.52
2019-04-11T00:14:53.931Z,2.32
2019-04-11T00:17:59.186Z,2.28
2019-04-11T00:21:04.557Z,2.35
2019-04-11T00:24:10.399Z,2.30
2019-04-11T00:27:15.594Z,2.65
2019-04-11T00:30:20.890Z,2.60
2019-04-11T00:33:27.225Z,2.59
2019-04-11T00:36:32.581Z,2.38
2019-04-11T00:39:37.751Z,2.38
2019-04-11T00:42:43.013Z,2.26
2019-04-11T00:45:48.016Z,1.93
2019-04-11T00:48:54.390Z,1.92
2019-04-11T00:52:00.372Z,1.78
2019-04-11T00:55:07.206Z,1.94
2019-04-11T00:58:13.556Z,1.86
2019-04-11T01:01:19.798Z,1.94
2019-04-11T01:04:25.524Z,1.60
2019-04-11T01:07:31.105Z,1.62
2019-04-11T01:10:36.298Z,1.65
2019-04-11T01:13:47.744Z,1.57
2019-04-11T01:17:07.522Z,1.37
2019-04-11T01:20:13.341Z,1.38
2019-04-11T01:23:18.585Z,1.16
2019-04-11T01:26:23.749Z,1.05
2019-04-11T01:29:28.988Z,1.00
2019-04-11T01:32:34.707Z,1.16
2019-04-11T01:35:39.852Z,1.16
2019-04-11T01:38:49.043Z,1.10
2019-04-11T01:41:55.186Z,0.98
2019-04-11T01:45:01.049Z,0.97
2019-04-11T01:48:27.878Z,0.98
2019-04-11T01:51:33.866Z,1.08
2019-04-11T01:54:39.600Z,1.20
2019-04-11T01:57:44.806Z,0.97
2019-04-11T02:01:06.385Z,0.83
2019-04-11T02:04:32.085Z,0.84
2019-04-11T02:07:38.584Z,0.62
2019-04-11T02:10:43.854Z,0.74
2019-04-11T02:13:50.247Z,0.95
2019-04-11T02:16:57.081Z,0.71
2019-04-11T02:20:02.779Z,0.67
2019-04-11T02:23:17.491Z,0.79
2019-04-11T02:26:29.364Z,0.73
2019-04-11T02:29:35.428Z,0.49
2019-04-11T02:32:42.689Z,0.41
2019-04-11T02:35:49.319Z,0.48
2019-04-11T02:38:57.563Z,0.41
2019-04-11T02:42:02.252Z,0.37
2019-04-11T02:45:19.622Z,0.55
2019-04-11T02:48:16.303Z,0.51
2019-04-11T02:51:22.705Z,0.27
2019-04-11T02:54:28.493Z,0.46
2019-04-11T02:57:36.162Z,0.18
2019-04-11T03:00:42.209Z,0.11
2019-04-11T03:03:47.560Z,0.12
2019-04-11T03:06:52.874Z,0.03
2019-04-11T03:09:58.124Z,-0.11
2019-04-11T03:13:04.934Z,0.01
2019-04-11T03:16:25.000Z,-0.01
2019-04-11T03:19:30.337Z,-0.07
2019-04-11T03:22:24.809Z,-0.11
2019-04-11T03:25:31.202Z,-0.09
2019-04-11T03:28:38.868Z,-0.13
2019-04-11T03:32:33.108Z,-0.18
2019-04-11T03:35:45.519Z,-0.31
2019-04-11T03:38:42.585Z,-0.17
2019-04-11T03:41:42.582Z,-0.28
2019-04-11T03:44:38.330Z,-0.31
2019-04-11T03:47:54.480Z,-0.37
2019-04-11T03:50:46.825Z,-0.40
2019-04-11T03:53:53.602Z,-0.36
2019-04-11T03:56:59.207Z,-0.24
2019-04-11T04:00:06.334Z,-0.29
2019-04-11T04:03:13.475Z,-0.22
2019-04-11T04:06:19.144Z,-0.28
2019-04-11T04:09:26.339Z,-0.27
2019-04-11T04:12:33.589Z,-0.25
2019-04-11T04:16:07.565Z,-0.31
2019-04-11T04:19:16.364Z,-0.27
2019-04-11T04:22:37.621Z,-0.08
2019-04-11T04:25:46.718Z,-0.21
2019-04-11T04:28:51.277Z,-0.05
2019-04-11T04:31:57.332Z,-0.05
2019-04-11T04:35:07.195Z,-0.09
2019-04-11T04:38:11.380Z,-0.10
2019-04-11T04:41:29.954Z,0.00
2019-04-11T04:44:26.447Z,-0.06
2019-04-11T04:47:39.503Z,0.04
2019-04-11T04:50:39.292Z,0.02
2019-04-11T04:53:45.231Z,0.02
2019-04-11T04:56:52.284Z,0.16
2019-04-11T04:59:58.324Z,0.25
2019-04-11T05:03:05.448Z,0.42
2019-04-11T05:06:12.055Z,0.80
2019-04-11T05:09:17.867Z,1.17
2019-04-11T05:12:23.359Z,1.53
2019-04-11T05:15:28.511Z,2.14
2019-04-11T05:18:34.253Z,2.84
2019-04-11T05:21:39.497Z,3.13
2019-04-11T05:24:45.365Z,3.51
2019-04-11T05:27:50.763Z,3.13
2019-04-11T05:30:55.973Z,3.74
2019-04-11T05:34:03.442Z,3.78
2019-04-11T05:37:09.035Z,3.53
2019-04-11T05:40:15.469Z,4.36
2019-04-11T05:43:22.507Z,4.42
2019-04-11T05:46:35.519Z,3.77
2019-04-11T05:49:43.888Z,4.76
2019-04-11T05:52:50.386Z,5.00
2019-04-11T05:55:57.424Z,5.21
2019-04-11T05:59:15.171Z,5.00
2019-04-11T06:02:46.127Z,4.69
2019-04-11T06:06:01.476Z,4.84
2019-04-11T06:09:13.372Z,5.28
2019-04-11T06:12:48.868Z,5.21
2019-04-11T06:15:57.426Z,5.24
2019-04-11T06:19:30.458Z,4.89
2019-04-11T06:22:38.463Z,4.65
2019-04-11T06:26:06.693Z,4.66
2019-04-11T06:29:24.984Z,4.78
2019-04-11T06:32:49.422Z,4.84
2019-04-11T06:36:20.911Z,4.96
2019-04-11T06:39:59.363Z,5.00
2019-04-11T06:43:12.550Z,5.20
2019-04-11T06:46:48.583Z,5.33
2019-04-11T06:49:50.986Z,5.32
2019-04-11T06:52:56.463Z,5.58
2019-04-11T06:56:27.270Z,5.63
2019-04-11T06:59:42.937Z,5.78
2019-04-11T07:02:57.189Z,5.92
2019-04-11T07:06:06.997Z,6.18
2019-04-11T07:09:32.908Z,6.41
2019-04-11T07:12:55.991Z,6.27
2019-04-11T07:16:02.700Z,6.14
2019-04-11T07:19:26.884Z,6.21
2019-04-11T07:22:50.950Z,6.53
2019-04-11T07:26:10.730Z,6.48
2019-04-11T07:29:50.743Z,6.62
2019-04-11T07:33:02.227Z,6.65
2019-04-11T07:36:27.399Z,6.47
2019-04-11T07:40:05.709Z,6.85
2019-04-11T07:43:19.060Z,6.83
2019-04-11T07:46:49.764Z,6.95
2019-04-11T07:49:55.679Z,6.81
2019-04-11T07:53:03.110Z,6.76
2019-04-11T07:56:08.411Z,7.01
2019-04-11T07:59:23.452Z,6.89
2019-04-11T08:02:47.829Z,7.00
2019-04-11T08:06:17.921Z,7.24
2019-04-11T08:09:42.124Z,7.54
2019-04-11T08:12:48.017Z,7.21
2019-04-11T08:16:12.530Z,7.44
2019-04-11T08:19:46.923Z,7.33
2019-04-11T08:22:55.136Z,7.40
2019-04-11T08:26:13.657Z,7.42
2019-04-11T08:29:20.134Z,7.43
2019-04-11T08:32:44.279Z,7.43
2019-04-11T08:36:14.230Z,7.52
2019-04-11T08:39:24.830Z,7.68
2019-04-11T08:42:48.669Z,7.71
2019-04-11T08:46:02.604Z,7.84
2019-04-11T08:49:13.876Z,7.85
2019-04-11T08:52:42.388Z,8.20
2019-04-11T08:55:58.565Z,8.28
2019-04-11T08:59:47.119Z,8.15
2019-04-11T09:03:17.683Z,8.09
2019-04-11T09:06:30.582Z,8.24
2019-04-11T09:09:57.702Z,8.18
2019-04-11T09:13:15.292Z,8.30
2019-04-11T09:16:39.643Z,8.31
2019-04-11T09:20:10.176Z,8.14
2019-04-11T09:23:18.062Z,8.12
2019-04-11T09:26:42.548Z,8.55
2019-04-11T09:29:52.506Z,8.57
2019-04-11T09:33:15.296Z,8.41
2019-04-11T09:36:51.817Z,8.37
2019-04-11T09:40:15.984Z,8.66
2019-04-11T09:43:24.154Z,8.81
2019-04-11T09:46:59.209Z,9.14
2019-04-11T09:50:05.829Z,9.43
2019-04-11T09:53:12.109Z,9.15
2019-04-11T09:56:37.783Z,9.34
2019-04-11T10:00:01.942Z,9.26
2019-04-11T10:03:28.115Z,9.51
2019-04-11T10:07:07.425Z,9.69
2019-04-11T10:10:33.017Z,9.39
2019-04-11T10:14:07.268Z,9.47
2019-04-11T10:17:38.481Z,9.26
2019-04-11T10:20:44.618Z,9.72
2019-04-11T10:24:24.331Z,9.59
2019-04-11T10:27:55.260Z,9.35
2019-04-11T10:31:20.204Z,9.60
2019-04-11T10:34:47.942Z,10.03
2019-04-11T10:37:53.257Z,9.84
2019-04-11T10:41:06.626Z,9.76
2019-04-11T10:44:13.912Z,9.59
2019-04-11T10:47:21.307Z,9.51
2019-04-11T10:50:48.588Z,9.97
2019-04-11T10:53:56.100Z,10.18
2019-04-11T10:57:21.476Z,9.90
2019-04-11T11:00:33.376Z,10.26
2019-04-11T11:03:51.471Z,10.11
2019-04-11T11:07:04.464Z,10.33
2019-04-11T11:10:24.127Z,10.48
2019-04-11T11:13:48.280Z,10.68
2019-04-11T11:17:10.793Z,10.62
2019-04-11T11:20:45.524Z,10.66
2019-04-11T11:24:07.209Z,10.76
2019-04-11T11:27:10.666Z,10.56
2019-04-11T11:30:33.677Z,10.43
2019-04-11T11:33:38.890Z,10.21
2019-04-11T11:37:18.524Z,10.58
2019-04-11T11:40:50.068Z,10.55
2019-04-11T11:43:55.445Z,10.86
2019-04-11T11:47:19.509Z,11.04
2019-04-11T11:50:25.221Z,10.69
2019-04-11T11:53:38.613Z,10.82
2019-04-11T11:56:44.536Z,10.93
2019-04-11T11:59:53.750Z,10.92
2019-04-11T12:03:31.162Z,11.24
2019-04-11T12:06:36.914Z,11.12
2019-04-11T12:10:01.173Z,11.08
2019-04-11T12:13:45.435Z,11.10
2019-04-11T12:17:01.977Z,10.97
2019-04-11T12:20:13.413Z,11.02
2019-04-11T12:23:29.494Z,11.11
2019-04-11T12:26:40.764Z,11.32
2019-04-11T12:30:05.885Z,10.95
2019-04-11T12:33:19.359Z,10.77
2019-04-11T12:36:28.438Z,11.32
2019-04-11T12:39:58.698Z,11.53
2019-04-11T12:43:04.590Z,11.49
2019-04-11T12:46:46.979Z,11.27
2019-04-11T12:50:20.229Z,11.03
2019-04-11T12:53:27.074Z,10.94
2019-04-11T12:57:09.342Z,10.91
2019-04-11T13:00:25.329Z,11.15
2019-04-11T13:03:48.108Z,11.19
2019-04-11T13:07:15.690Z,11.35
2019-04-11T13:10:29.082Z,11.15
2019-04-11T13:13:54.555Z,11.34
2019-04-11T13:17:00.460Z,11.22
2019-04-11T13:20:25.324Z,11.42
2019-04-11T13:23:42.741Z,11.44
2019-04-11T13:27:05.521Z,11.40
2019-04-11T13:30:28.449Z,11.55
2019-04-11T13:33:33.575Z,11.47
2019-04-11T13:37:06.801Z,11.29
2019-04-11T13:40:24.931Z,11.40
2019-04-11T13:43:33.439Z,11.74
2019-04-11T13:46:57.643Z,11.67
2019-04-11T13:50:16.132Z,11.92
2019-04-11T13:53:49.540Z,12.15
2019-04-11T13:57:28.773Z,12.28
2019-04-11T14:00:47.705Z,12.24
2019-04-11T14:04:10.016Z,12.29
2019-04-11T14:07:17.530Z,12.11
2019-04-11T14:10:22.934Z,11.86
2019-04-11T14:13:36.220Z,11.71
2019-04-11T14:16:46.887Z,12.04
2019-04-11T14:20:11.646Z,11.88
2019-04-11T14:23:35.456Z,11.68
2019-04-11T14:26:43.236Z,11.65
2019-04-11T14:30:06.157Z,12.21
2019-04-11T14:33:11.501Z,11.86
2019-04-11T14:36:34.386Z,11.87
2019-04-11T14:39:42.219Z,11.97
2019-04-11T14:43:06.338Z,11.70
2019-04-11T14:46:28.668Z,11.83
2019-04-11T14:49:34.046Z,11.88
2019-04-11T14:53:04.414Z,12.07
2019-04-11T14:56:09.496Z,11.79
2019-04-11T14:59:27.090Z,11.63
2019-04-11T15:02:54.055Z,11.84
2019-04-11T15:06:27.917Z,11.84
2019-04-11T15:09:52.206Z,12.00
2019-04-11T15:12:57.674Z,11.80
2019-04-11T15:16:19.406Z,11.84
2019-04-11T15:19:24.641Z,11.80
2019-04-11T15:22:44.409Z,11.41
2019-04-11T15:26:08.807Z,11.56
2019-04-11T15:29:27.709Z,11.63
2019-04-11T15:33:10.045Z,11.40
2019-04-11T15:36:16.460Z,11.38
2019-04-11T15:39:52.871Z,11.61
2019-04-11T15:43:29.022Z,11.80
2019-04-11T15:46:35.370Z,11.47
2019-04-11T15:50:08.851Z,11.43
2019-04-11T15:53:18.710Z,11.58
2019-04-11T15:56:42.932Z,11.21
2019-04-11T16:00:07.032Z,10.93
2019-04-11T16:03:14.203Z,11.04
2019-04-11T16:06:38.888Z,10.97
2019-04-11T16:09:42.910Z,10.90
2019-04-11T16:12:55.080Z,11.00
2019-04-11T16:16:06.788Z,10.96
2019-04-11T16:19:25.720Z,10.94
2019-04-11T16:23:01.901Z,11.04
2019-04-11T16:26:09.753Z,11.13
2019-04-11T16:29:21.731Z,10.84
2019-04-11T16:32:27.897Z,10.79
2019-04-11T16:35:39.013Z,10.66
2019-04-11T16:38:51.457Z,10.40
2019-04-11T16:42:01.565Z,10.38
2019-04-11T16:45:39.929Z,10.29
2019-04-11T16:48:45.109Z,10.28
2019-04-11T16:51:50.345Z,10.10
2019-04-11T16:54:56.555Z,10.03
2019-04-11T16:58:01.708Z,9.85
2019-04-11T17:01:07.838Z,9.89
2019-04-11T17:04:13.064Z,9.83
2019-04-11T17:07:38.896Z,9.82
2019-04-11T17:11:21.595Z,9.64
2019-04-11T17:14:28.177Z,9.55
2019-04-11T17:17:33.647Z,9.56
2019-04-11T17:20:39.740Z,9.47
2019-04-11T17:23:47.163Z,9.36
2019-04-11T17:26:52.833Z,9.25
2019-04-11T17:29:58.505Z,9.13
2019-04-11T17:33:03.676Z,8.99
2019-04-11T17:36:08.826Z,8.94
2019-04-11T17:39:14.054Z,8.95
2019-04-11T17:42:19.270Z,8.82
2019-04-11T17:45:24.364Z,8.69
2019-04-11T17:48:29.604Z,8.69
2019-04-11T17:51:35.321Z,8.53
2019-04-11T17:54:40.594Z,8.47
2019-04-11T17:57:45.800Z,8.42
2019-04-11T18:01:00.193Z,8.11
2019-04-11T18:04:04.767Z,8.00
2019-04-11T18:07:09.959Z,8.04
2019-04-11T18:10:15.136Z,8.00
2019-04-11T18:13:20.495Z,7.91
2019-04-11T18:16:25.623Z,7.88
2019-04-11T18:19:30.999Z,7.74
2019-04-11T18:22:36.129Z,7.64
2019-04-11T18:25:41.341Z,7.52
2019-04-11T18:28:46.597Z,7.26
2019-04-11T18:31:51.878Z,7.36
2019-04-11T18:34:57.183Z,7.34
2019-04-11T18:38:02.669Z,7.35
2019-04-11T18:41:07.888Z,7.20
2019-04-11T18:44:13.129Z,7.11
2019-04-11T18:47:18.343Z,7.08
2019-04-11T18:50:23.601Z,7.00
2019-04-11T18:53:28.849Z,6.85
2019-04-11T18:56:34.106Z,6.76
2019-04-11T18:59:39.256Z,6.66
2019-04-11T19:02:44.539Z,6.60
2019-04-11T19:05:49.727Z,6.50
2019-04-11T19:08:55.000Z,6.49
2019-04-11T19:12:00.342Z,6.39
2019-04-11T19:15:08.014Z,6.34
2019-04-11T19:18:16.041Z,6.30
2019-04-11T19:21:21.189Z,5.97
2019-04-11T19:24:35.386Z,5.99
2019-04-11T19:27:33.321Z,5.84
2019-04-11T19:30:38.405Z,5.93
2019-04-11T19:33:43.616Z,5.77
2019-04-11T19:36:48.823Z,5.74
2019-04-11T19:39:54.161Z,5.69
2019-04-11T19:42:59.435Z,5.63
2019-04-11T19:46:04.571Z,5.40
2019-04-11T19:49:09.915Z,5.38
2019-04-11T19:52:15.140Z,5.35
2019-04-11T19:55:29.092Z,5.30
2019-04-11T19:58:34.226Z,5.27
2019-04-11T20:01:39.566Z,5.08
2019-04-11T20:04:46.592Z,5.08
2019-04-11T20:07:51.565Z,4.66
2019-04-11T20:10:56.663Z,4.99
2019-04-11T20:14:02.879Z,5.01
2019-04-11T20:17:09.251Z,4.97
2019-04-11T20:20:14.468Z,4.67
2019-04-11T20:23:19.609Z,4.72
2019-04-11T20:26:24.892Z,4.63
2019-04-11T20:29:30.063Z,4.51
2019-04-11T20:32:36.264Z,4.17
2019-04-11T20:35:41.594Z,4.20
2019-04-11T20:38:46.798Z,4.17
2019-04-11T20:41:53.494Z,4.07
2019-04-11T20:44:59.201Z,3.91
2019-04-11T20:48:04.474Z,3.93
2019-04-11T20:51:09.580Z,3.84
2019-04-11T20:54:14.846Z,3.96
2019-04-11T20:57:25.585Z,4.02
2019-04-11T21:00:26.771Z,4.04
2019-04-11T21:03:32.085Z,4.13
2019-04-11T21:06:37.333Z,3.91
2019-04-11T21:09:42.527Z,3.70
2019-04-11T21:12:47.639Z,3.86
2019-04-11T21:15:52.905Z,3.46
2019-04-11T21:18:58.159Z,3.17
2019-04-11T21:22:03.310Z,3.35
2019-04-11T21:25:08.512Z,3.47
2019-04-11T21:28:13.665Z,3.28
2019-04-11T21:31:18.899Z,3.46
2019-04-11T21:34:24.144Z,3.43
2019-04-11T21:37:30.182Z,3.40
2019-04-11T21:40:36.872Z,3.29
2019-04-11T21:43:42.065Z,3.43
2019-04-11T21:46:49.337Z,3.32
2019-04-11T21:49:54.161Z,3.38
2019-04-11T21:52:59.405Z,3.44
2019-04-11T21:56:04.810Z,3.08
2019-04-11T21:59:12.192Z,3.05
2019-04-11T22:02:17.576Z,2.87
2019-04-11T22:05:22.719Z,2.81
2019-04-11T22:08:27.919Z,2.73
2019-04-11T22:11:33.081Z,2.64
2019-04-11T22:14:41.289Z,2.56
2019-04-11T22:17:45.501Z,2.36
2019-04-11T22:20:51.391Z,2.25
2019-04-11T22:23:56.526Z,2.26
2019-04-11T22:27:01.665Z,2.42
2019-04-11T22:30:08.347Z,2.37
2019-04-11T22:33:28.833Z,2.38
2019-04-11T22:36:33.986Z,2.34
2019-04-11T22:39:39.115Z,2.40
2019-04-11T22:42:44.367Z,2.29
2019-04-11T22:45:49.464Z,2.11
2019-04-11T22:48:54.595Z,2.05
2019-04-11T22:51:59.692Z,2.25
2019-04-11T22:55:05.330Z,2.18
2019-04-11T22:58:13.942Z,1.95
2019-04-11T23:01:17.333Z,2.07
2019-04-11T23:04:22.465Z,2.07
2019-04-11T23:07:27.598Z,2.08
2019-04-11T23:10:32.752Z,2.12
2019-04-11T23:13:37.871Z,2.30
2019-04-11T23:16:44.154Z,2.26
2019-04-11T23:19:49.880Z,2.35
2019-04-11T23:22:55.164Z,2.11
2019-04-11T23:26:00.303Z,1.87
2019-04-11T23:29:05.410Z,1.91
2019-04-11T23:32:10.614Z,1.92
2019-04-11T23:35:15.736Z,1.74
2019-04-11T23:38:23.550Z,1.48
2019-04-11T23:41:27.863Z,1.32
2019-04-11T23:44:33.035Z,1.25
2019-04-11T23:47:38.316Z,1.22
2019-04-11T23:50:43.470Z,1.11
2019-04-11T23:53:48.582Z,0.99
2019-04-11T23:56:54.689Z,0.99
